sensor_id;sensor_type;location;lat;lon;timestamp;pressure;altitude;pressure_sealevel;temperature
41593;BMP180;28026;48.562;14.440;2023-04-24T00:02:14;92734.00;;;18.80
41593;BMP180;28026;48.562;14.440;2023-04-24T00:04:45;92735.00;;;18.80
41593;BMP180;28026;48.562;14.440;2023-04-24T00:07:16;92747.00;;;18.80
41593;BMP180;28026;48.562;14.440;2023-04-24T00:09:47;92742.00;;;18.80
41593;BMP180;28026;48.562;14.440;2023-04-24T00:12:18;92740.00;;;18.80
41593;BMP180;28026;48.562;14.440;2023-04-24T00:14:49;92738.00;;;18.70
41593;BMP180;28026;48.562;14.440;2023-04-24T00:17:20;92744.00;;;18.70
41593;BMP180;28026;48.562;14.440;2023-04-24T00:19:51;92746.00;;;18.60
41593;BMP180;28026;48.562;14.440;2023-04-24T00:22:28;92754.00;;;18.50
41593;BMP180;28026;48.562;14.440;2023-04-24T00:24:59;92756.00;;;18.50
41593;BMP180;28026;48.562;14.440;2023-04-24T00:27:30;92752.00;;;18.50
41593;BMP180;28026;48.562;14.440;2023-04-24T00:30:01;92751.00;;;18.40
41593;BMP180;28026;48.562;14.440;2023-04-24T00:32:32;92745.00;;;18.40
41593;BMP180;28026;48.562;14.440;2023-04-24T00:35:03;92750.00;;;18.40
41593;BMP180;28026;48.562;14.440;2023-04-24T00:37:34;92758.00;;;18.40
41593;BMP180;28026;48.562;14.440;2023-04-24T00:40:06;92754.00;;;18.40
41593;BMP180;28026;48.562;14.440;2023-04-24T00:42:38;92746.00;;;18.40
41593;BMP180;28026;48.562;14.440;2023-04-24T00:45:11;92747.00;;;18.40
41593;BMP180;28026;48.562;14.440;2023-04-24T00:47:43;92754.00;;;18.30
41593;BMP180;28026;48.562;14.440;2023-04-24T00:50:16;92747.00;;;18.30
41593;BMP180;28026;48.562;14.440;2023-04-24T00:52:46;92757.00;;;18.30
41593;BMP180;28026;48.562;14.440;2023-04-24T00:55:17;92766.00;;;18.30
41593;BMP180;28026;48.562;14.440;2023-04-24T00:57:48;92764.00;;;18.20
41593;BMP180;28026;48.562;14.440;2023-04-24T01:00:20;92768.00;;;18.20
41593;BMP180;28026;48.562;14.440;2023-04-24T01:02:51;92776.00;;;18.10
41593;BMP180;28026;48.562;14.440;2023-04-24T01:05:23;92783.00;;;18.20
41593;BMP180;28026;48.562;14.440;2023-04-24T01:07:54;92792.00;;;18.20
41593;BMP180;28026;48.562;14.440;2023-04-24T01:10:27;92789.00;;;18.20
41593;BMP180;28026;48.562;14.440;2023-04-24T01:13:00;92792.00;;;18.10
41593;BMP180;28026;48.562;14.440;2023-04-24T01:15:30;92790.00;;;18.20
41593;BMP180;28026;48.562;14.440;2023-04-24T01:18:02;92780.00;;;18.20
41593;BMP180;28026;48.562;14.440;2023-04-24T01:20:33;92778.00;;;18.20
41593;BMP180;28026;48.562;14.440;2023-04-24T01:23:06;92773.00;;;18.20
41593;BMP180;28026;48.562;14.440;2023-04-24T01:25:37;92775.00;;;18.30
41593;BMP180;28026;48.562;14.440;2023-04-24T01:28:08;92782.00;;;18.30
41593;BMP180;28026;48.562;14.440;2023-04-24T01:30:39;92772.00;;;18.30
41593;BMP180;28026;48.562;14.440;2023-04-24T01:33:10;92771.00;;;18.40
41593;BMP180;28026;48.562;14.440;2023-04-24T01:35:42;92763.00;;;18.40
41593;BMP180;28026;48.562;14.440;2023-04-24T01:38:13;92769.00;;;18.40
41593;BMP180;28026;48.562;14.440;2023-04-24T01:40:43;92768.00;;;18.30
41593;BMP180;28026;48.562;14.440;2023-04-24T01:43:15;92762.00;;;18.30
41593;BMP180;28026;48.562;14.440;2023-04-24T01:45:46;92762.00;;;18.20
41593;BMP180;28026;48.562;14.440;2023-04-24T01:48:17;92756.00;;;18.20
41593;BMP180;28026;48.562;14.440;2023-04-24T01:50:48;92755.00;;;18.10
41593;BMP180;28026;48.562;14.440;2023-04-24T01:53:19;92747.00;;;18.00
41593;BMP180;28026;48.562;14.440;2023-04-24T01:55:50;92749.00;;;18.00
41593;BMP180;28026;48.562;14.440;2023-04-24T01:58:21;92746.00;;;18.00
41593;BMP180;28026;48.562;14.440;2023-04-24T02:00:53;92743.00;;;17.90
41593;BMP180;28026;48.562;14.440;2023-04-24T02:03:26;92742.00;;;17.90
41593;BMP180;28026;48.562;14.440;2023-04-24T02:05:57;92733.00;;;17.90
41593;BMP180;28026;48.562;14.440;2023-04-24T02:08:28;92735.00;;;17.80
41593;BMP180;28026;48.562;14.440;2023-04-24T02:10:59;92739.00;;;17.80
41593;BMP180;28026;48.562;14.440;2023-04-24T02:13:31;92739.00;;;17.80
41593;BMP180;28026;48.562;14.440;2023-04-24T02:16:02;92727.00;;;17.70
41593;BMP180;28026;48.562;14.440;2023-04-24T02:18:33;92728.00;;;17.70
41593;BMP180;28026;48.562;14.440;2023-04-24T02:21:04;92727.00;;;17.60
41593;BMP180;28026;48.562;14.440;2023-04-24T02:23:35;92725.00;;;17.60
41593;BMP180;28026;48.562;14.440;2023-04-24T02:26:06;92735.00;;;17.50
41593;BMP180;28026;48.562;14.440;2023-04-24T02:28:36;92732.00;;;17.50
41593;BMP180;28026;48.562;14.440;2023-04-24T02:31:07;92737.00;;;17.50
41593;BMP180;28026;48.562;14.440;2023-04-24T02:33:38;92724.00;;;17.50
41593;BMP180;28026;48.562;14.440;2023-04-24T02:36:09;92731.00;;;17.50
41593;BMP180;28026;48.562;14.440;2023-04-24T02:38:40;92727.00;;;17.50
41593;BMP180;28026;48.562;14.440;2023-04-24T02:41:10;92723.00;;;17.60
41593;BMP180;28026;48.562;14.440;2023-04-24T02:43:41;92725.00;;;17.70
41593;BMP180;28026;48.562;14.440;2023-04-24T02:46:12;92724.00;;;17.70
41593;BMP180;28026;48.562;14.440;2023-04-24T02:48:43;92717.00;;;17.80
41593;BMP180;28026;48.562;14.440;2023-04-24T02:51:14;92718.00;;;17.80
41593;BMP180;28026;48.562;14.440;2023-04-24T02:53:44;92708.00;;;17.80
41593;BMP180;28026;48.562;14.440;2023-04-24T02:56:15;92714.00;;;17.70
41593;BMP180;28026;48.562;14.440;2023-04-24T02:58:46;92712.00;;;17.70
41593;BMP180;28026;48.562;14.440;2023-04-24T03:01:17;92704.00;;;17.60
41593;BMP180;28026;48.562;14.440;2023-04-24T03:03:48;92711.00;;;17.50
41593;BMP180;28026;48.562;14.440;2023-04-24T03:06:19;92713.00;;;17.50
41593;BMP180;28026;48.562;14.440;2023-04-24T03:08:51;92707.00;;;17.40
41593;BMP180;28026;48.562;14.440;2023-04-24T03:11:22;92706.00;;;17.30
41593;BMP180;28026;48.562;14.440;2023-04-24T03:13:52;92705.00;;;17.30
41593;BMP180;28026;48.562;14.440;2023-04-24T03:16:23;92699.00;;;17.30
41593;BMP180;28026;48.562;14.440;2023-04-24T03:18:54;92693.00;;;17.40
41593;BMP180;28026;48.562;14.440;2023-04-24T03:21:25;92697.00;;;17.30
41593;BMP180;28026;48.562;14.440;2023-04-24T03:23:56;92708.00;;;17.30
41593;BMP180;28026;48.562;14.440;2023-04-24T03:26:27;92691.00;;;17.30
41593;BMP180;28026;48.562;14.440;2023-04-24T03:28:58;92708.00;;;17.40
41593;BMP180;28026;48.562;14.440;2023-04-24T03:31:29;92705.00;;;17.40
41593;BMP180;28026;48.562;14.440;2023-04-24T03:34:00;92713.00;;;17.50
41593;BMP180;28026;48.562;14.440;2023-04-24T03:36:31;92713.00;;;17.50
41593;BMP180;28026;48.562;14.440;2023-04-24T03:39:02;92716.00;;;17.50
41593;BMP180;28026;48.562;14.440;2023-04-24T03:41:33;92711.00;;;17.50
41593;BMP180;28026;48.562;14.440;2023-04-24T03:44:03;92718.00;;;17.60
41593;BMP180;28026;48.562;14.440;2023-04-24T03:46:34;92714.00;;;17.60
41593;BMP180;28026;48.562;14.440;2023-04-24T03:49:05;92718.00;;;17.70
41593;BMP180;28026;48.562;14.440;2023-04-24T03:51:36;92724.00;;;17.80
41593;BMP180;28026;48.562;14.440;2023-04-24T03:54:07;92732.00;;;17.90
41593;BMP180;28026;48.562;14.440;2023-04-24T03:56:38;92722.00;;;18.00
41593;BMP180;28026;48.562;14.440;2023-04-24T03:59:08;92722.00;;;18.00
41593;BMP180;28026;48.562;14.440;2023-04-24T04:01:39;92727.00;;;18.00
41593;BMP180;28026;48.562;14.440;2023-04-24T04:04:10;92727.00;;;18.10
41593;BMP180;28026;48.562;14.440;2023-04-24T04:06:42;92726.00;;;18.10
41593;BMP180;28026;48.562;14.440;2023-04-24T04:09:14;92717.00;;;18.10
41593;BMP180;28026;48.562;14.440;2023-04-24T04:11:45;92725.00;;;18.10
41593;BMP180;28026;48.562;14.440;2023-04-24T04:14:16;92722.00;;;18.00
41593;BMP180;28026;48.562;14.440;2023-04-24T04:16:47;92724.00;;;17.90
41593;BMP180;28026;48.562;14.440;2023-04-24T04:19:18;92721.00;;;17.80
41593;BMP180;28026;48.562;14.440;2023-04-24T04:21:48;92737.00;;;17.70
41593;BMP180;28026;48.562;14.440;2023-04-24T04:24:23;92733.00;;;17.80
41593;BMP180;28026;48.562;14.440;2023-04-24T04:26:54;92736.00;;;17.80
41593;BMP180;28026;48.562;14.440;2023-04-24T04:29:28;92735.00;;;17.70
41593;BMP180;28026;48.562;14.440;2023-04-24T04:31:59;92737.00;;;17.70
41593;BMP180;28026;48.562;14.440;2023-04-24T04:34:29;92739.00;;;17.70
41593;BMP180;28026;48.562;14.440;2023-04-24T04:37:01;92744.00;;;17.70
41593;BMP180;28026;48.562;14.440;2023-04-24T04:39:32;92736.00;;;17.80
41593;BMP180;28026;48.562;14.440;2023-04-24T04:42:03;92737.00;;;17.80
41593;BMP180;28026;48.562;14.440;2023-04-24T04:44:34;92733.00;;;17.90
41593;BMP180;28026;48.562;14.440;2023-04-24T04:47:06;92733.00;;;17.90
41593;BMP180;28026;48.562;14.440;2023-04-24T04:49:38;92743.00;;;17.90
41593;BMP180;28026;48.562;14.440;2023-04-24T04:52:09;92735.00;;;17.80
41593;BMP180;28026;48.562;14.440;2023-04-24T04:54:40;92742.00;;;17.80
41593;BMP180;28026;48.562;14.440;2023-04-24T04:57:11;92738.00;;;17.80
41593;BMP180;28026;48.562;14.440;2023-04-24T04:59:42;92738.00;;;17.80
41593;BMP180;28026;48.562;14.440;2023-04-24T05:02:13;92742.00;;;17.80
41593;BMP180;28026;48.562;14.440;2023-04-24T05:04:44;92749.00;;;17.80
41593;BMP180;28026;48.562;14.440;2023-04-24T05:07:15;92748.00;;;17.80
41593;BMP180;28026;48.562;14.440;2023-04-24T05:09:46;92753.00;;;17.70
41593;BMP180;28026;48.562;14.440;2023-04-24T05:12:17;92750.00;;;17.70
41593;BMP180;28026;48.562;14.440;2023-04-24T05:14:47;92750.00;;;17.70
41593;BMP180;28026;48.562;14.440;2023-04-24T05:17:18;92759.00;;;17.80
41593;BMP180;28026;48.562;14.440;2023-04-24T05:19:49;92760.00;;;17.80
41593;BMP180;28026;48.562;14.440;2023-04-24T05:22:20;92758.00;;;17.90
41593;BMP180;28026;48.562;14.440;2023-04-24T05:24:51;92765.00;;;17.90
41593;BMP180;28026;48.562;14.440;2023-04-24T05:27:22;92763.00;;;17.90
41593;BMP180;28026;48.562;14.440;2023-04-24T05:29:53;92761.00;;;17.90
41593;BMP180;28026;48.562;14.440;2023-04-24T05:32:24;92756.00;;;17.80
41593;BMP180;28026;48.562;14.440;2023-04-24T05:34:55;92766.00;;;17.70
41593;BMP180;28026;48.562;14.440;2023-04-24T05:37:25;92766.00;;;17.60
41593;BMP180;28026;48.562;14.440;2023-04-24T05:39:56;92770.00;;;17.50
41593;BMP180;28026;48.562;14.440;2023-04-24T05:42:27;92772.00;;;17.50
41593;BMP180;28026;48.562;14.440;2023-04-24T05:44:58;92767.00;;;17.50
41593;BMP180;28026;48.562;14.440;2023-04-24T05:47:28;92762.00;;;17.50
41593;BMP180;28026;48.562;14.440;2023-04-24T05:50:00;92764.00;;;17.50
41593;BMP180;28026;48.562;14.440;2023-04-24T05:52:30;92769.00;;;17.50
41593;BMP180;28026;48.562;14.440;2023-04-24T05:55:01;92771.00;;;17.50
41593;BMP180;28026;48.562;14.440;2023-04-24T05:57:32;92781.00;;;17.50
41593;BMP180;28026;48.562;14.440;2023-04-24T06:00:04;92777.00;;;17.50
41593;BMP180;28026;48.562;14.440;2023-04-24T06:02:36;92782.00;;;17.40
41593;BMP180;28026;48.562;14.440;2023-04-24T06:05:07;92780.00;;;17.40
41593;BMP180;28026;48.562;14.440;2023-04-24T06:07:38;92780.00;;;17.50
41593;BMP180;28026;48.562;14.440;2023-04-24T06:10:09;92782.00;;;17.40
41593;BMP180;28026;48.562;14.440;2023-04-24T06:12:40;92777.00;;;17.40
41593;BMP180;28026;48.562;14.440;2023-04-24T06:15:11;92781.00;;;17.50
41593;BMP180;28026;48.562;14.440;2023-04-24T06:17:43;92785.00;;;17.50
41593;BMP180;28026;48.562;14.440;2023-04-24T06:20:14;92777.00;;;17.50
41593;BMP180;28026;48.562;14.440;2023-04-24T06:22:44;92787.00;;;17.40
41593;BMP180;28026;48.562;14.440;2023-04-24T06:25:15;92789.00;;;17.50
41593;BMP180;28026;48.562;14.440;2023-04-24T06:27:46;92782.00;;;17.50
41593;BMP180;28026;48.562;14.440;2023-04-24T06:30:17;92783.00;;;17.50
41593;BMP180;28026;48.562;14.440;2023-04-24T06:32:48;92781.00;;;17.50
41593;BMP180;28026;48.562;14.440;2023-04-24T06:35:19;92777.00;;;17.60
41593;BMP180;28026;48.562;14.440;2023-04-24T06:37:50;92776.00;;;17.70
41593;BMP180;28026;48.562;14.440;2023-04-24T06:40:21;92774.00;;;17.70
41593;BMP180;28026;48.562;14.440;2023-04-24T06:42:52;92774.00;;;17.70
41593;BMP180;28026;48.562;14.440;2023-04-24T06:45:23;92771.00;;;17.80
41593;BMP180;28026;48.562;14.440;2023-04-24T06:47:54;92782.00;;;17.80
41593;BMP180;28026;48.562;14.440;2023-04-24T06:50:25;92772.00;;;17.90
41593;BMP180;28026;48.562;14.440;2023-04-24T06:52:56;92777.00;;;17.90
41593;BMP180;28026;48.562;14.440;2023-04-24T06:55:26;92776.00;;;18.00
41593;BMP180;28026;48.562;14.440;2023-04-24T06:57:57;92773.00;;;17.90
41593;BMP180;28026;48.562;14.440;2023-04-24T07:00:28;92775.00;;;17.90
41593;BMP180;28026;48.562;14.440;2023-04-24T07:03:00;92783.00;;;17.80
41593;BMP180;28026;48.562;14.440;2023-04-24T07:05:31;92778.00;;;17.80
41593;BMP180;28026;48.562;14.440;2023-04-24T07:08:04;92776.00;;;17.80
41593;BMP180;28026;48.562;14.440;2023-04-24T07:10:35;92780.00;;;17.80
41593;BMP180;28026;48.562;14.440;2023-04-24T07:13:06;92780.00;;;17.70
41593;BMP180;28026;48.562;14.440;2023-04-24T07:15:37;92782.00;;;17.70
41593;BMP180;28026;48.562;14.440;2023-04-24T07:18:08;92783.00;;;17.60
41593;BMP180;28026;48.562;14.440;2023-04-24T07:20:39;92790.00;;;17.60
41593;BMP180;28026;48.562;14.440;2023-04-24T07:23:10;92792.00;;;17.60
41593;BMP180;28026;48.562;14.440;2023-04-24T07:25:41;92798.00;;;17.60
41593;BMP180;28026;48.562;14.440;2023-04-24T07:28:12;92798.00;;;17.60
41593;BMP180;28026;48.562;14.440;2023-04-24T07:30:43;92806.00;;;17.60
41593;BMP180;28026;48.562;14.440;2023-04-24T07:33:14;92801.00;;;17.60
41593;BMP180;28026;48.562;14.440;2023-04-24T07:35:45;92805.00;;;17.60
41593;BMP180;28026;48.562;14.440;2023-04-24T07:38:16;92800.00;;;17.50
41593;BMP180;28026;48.562;14.440;2023-04-24T07:40:46;92794.00;;;17.50
41593;BMP180;28026;48.562;14.440;2023-04-24T07:43:19;92813.00;;;17.50
41593;BMP180;28026;48.562;14.440;2023-04-24T07:45:51;92814.00;;;17.50
41593;BMP180;28026;48.562;14.440;2023-04-24T07:48:22;92816.00;;;17.50
41593;BMP180;28026;48.562;14.440;2023-04-24T07:50:53;92817.00;;;17.50
41593;BMP180;28026;48.562;14.440;2023-04-24T07:53:24;92814.00;;;17.50
41593;BMP180;28026;48.562;14.440;2023-04-24T07:55:56;92822.00;;;17.50
41593;BMP180;28026;48.562;14.440;2023-04-24T07:58:27;92818.00;;;17.50
41593;BMP180;28026;48.562;14.440;2023-04-24T08:00:57;92830.00;;;17.60
41593;BMP180;28026;48.562;14.440;2023-04-24T08:03:28;92825.00;;;17.60
41593;BMP180;28026;48.562;14.440;2023-04-24T08:05:59;92821.00;;;17.60
41593;BMP180;28026;48.562;14.440;2023-04-24T08:08:30;92825.00;;;17.60
41593;BMP180;28026;48.562;14.440;2023-04-24T08:11:00;92827.00;;;17.70
41593;BMP180;28026;48.562;14.440;2023-04-24T08:13:31;92828.00;;;17.70
41593;BMP180;28026;48.562;14.440;2023-04-24T08:16:02;92836.00;;;17.60
41593;BMP180;28026;48.562;14.440;2023-04-24T08:18:33;92834.00;;;17.60
41593;BMP180;28026;48.562;14.440;2023-04-24T08:21:06;92830.00;;;17.60
41593;BMP180;28026;48.562;14.440;2023-04-24T08:23:37;92839.00;;;17.70
41593;BMP180;28026;48.562;14.440;2023-04-24T08:26:07;92839.00;;;17.70
41593;BMP180;28026;48.562;14.440;2023-04-24T08:28:38;92833.00;;;17.70
41593;BMP180;28026;48.562;14.440;2023-04-24T08:31:09;92834.00;;;17.80
41593;BMP180;28026;48.562;14.440;2023-04-24T08:33:40;92846.00;;;17.80
41593;BMP180;28026;48.562;14.440;2023-04-24T08:36:11;92837.00;;;17.90
41593;BMP180;28026;48.562;14.440;2023-04-24T08:38:42;92839.00;;;17.90
41593;BMP180;28026;48.562;14.440;2023-04-24T08:41:14;92842.00;;;17.90
41593;BMP180;28026;48.562;14.440;2023-04-24T08:43:46;92835.00;;;18.00
41593;BMP180;28026;48.562;14.440;2023-04-24T08:46:19;92845.00;;;18.10
41593;BMP180;28026;48.562;14.440;2023-04-24T08:48:52;92845.00;;;18.20
41593;BMP180;28026;48.562;14.440;2023-04-24T08:51:26;92842.00;;;18.20
41593;BMP180;28026;48.562;14.440;2023-04-24T08:53:57;92845.00;;;18.30
41593;BMP180;28026;48.562;14.440;2023-04-24T08:56:28;92842.00;;;18.30
41593;BMP180;28026;48.562;14.440;2023-04-24T08:59:01;92845.00;;;18.40
41593;BMP180;28026;48.562;14.440;2023-04-24T09:01:33;92846.00;;;18.40
41593;BMP180;28026;48.562;14.440;2023-04-24T09:04:07;92855.00;;;18.40
41593;BMP180;28026;48.562;14.440;2023-04-24T09:06:40;92853.00;;;18.20
41593;BMP180;28026;48.562;14.440;2023-04-24T09:09:11;92851.00;;;18.10
41593;BMP180;28026;48.562;14.440;2023-04-24T09:11:42;92850.00;;;18.20
41593;BMP180;28026;48.562;14.440;2023-04-24T09:14:13;92852.00;;;18.10
41593;BMP180;28026;48.562;14.440;2023-04-24T09:16:44;92847.00;;;18.00
41593;BMP180;28026;48.562;14.440;2023-04-24T09:19:15;92851.00;;;17.90
41593;BMP180;28026;48.562;14.440;2023-04-24T09:21:46;92857.00;;;17.90
41593;BMP180;28026;48.562;14.440;2023-04-24T09:24:19;92854.00;;;17.90
41593;BMP180;28026;48.562;14.440;2023-04-24T09:26:57;92851.00;;;18.00
41593;BMP180;28026;48.562;14.440;2023-04-24T09:29:34;92854.00;;;18.00
41593;BMP180;28026;48.562;14.440;2023-04-24T09:32:27;92851.00;;;17.90
41593;BMP180;28026;48.562;14.440;2023-04-24T09:35:10;92857.00;;;18.00
41593;BMP180;28026;48.562;14.440;2023-04-24T09:37:46;92854.00;;;17.90
41593;BMP180;28026;48.562;14.440;2023-04-24T09:40:22;92854.00;;;17.90
41593;BMP180;28026;48.562;14.440;2023-04-24T09:42:55;92857.00;;;17.90
41593;BMP180;28026;48.562;14.440;2023-04-24T09:45:39;92851.00;;;18.00
41593;BMP180;28026;48.562;14.440;2023-04-24T09:48:10;92853.00;;;18.00
41593;BMP180;28026;48.562;14.440;2023-04-24T09:50:46;92861.00;;;18.10
41593;BMP180;28026;48.562;14.440;2023-04-24T09:53:24;92856.00;;;18.20
41593;BMP180;28026;48.562;14.440;2023-04-24T09:55:56;92854.00;;;18.40
41593;BMP180;28026;48.562;14.440;2023-04-24T09:58:32;92845.00;;;18.50
41593;BMP180;28026;48.562;14.440;2023-04-24T10:01:05;92846.00;;;18.60
41593;BMP180;28026;48.562;14.440;2023-04-24T10:03:35;92849.00;;;18.70
41593;BMP180;28026;48.562;14.440;2023-04-24T10:06:06;92858.00;;;18.80
41593;BMP180;28026;48.562;14.440;2023-04-24T10:08:39;92852.00;;;18.80
41593;BMP180;28026;48.562;14.440;2023-04-24T10:11:10;92850.00;;;18.70
41593;BMP180;28026;48.562;14.440;2023-04-24T10:13:42;92861.00;;;18.80
41593;BMP180;28026;48.562;14.440;2023-04-24T10:16:14;92861.00;;;18.70
41593;BMP180;28026;48.562;14.440;2023-04-24T10:18:45;92857.00;;;18.60
41593;BMP180;28026;48.562;14.440;2023-04-24T10:21:18;92854.00;;;18.60
41593;BMP180;28026;48.562;14.440;2023-04-24T10:23:50;92859.00;;;18.50
41593;BMP180;28026;48.562;14.440;2023-04-24T10:26:22;92862.00;;;18.60
41593;BMP180;28026;48.562;14.440;2023-04-24T10:28:57;92863.00;;;18.60
41593;BMP180;28026;48.562;14.440;2023-04-24T10:31:31;92861.00;;;18.70
41593;BMP180;28026;48.562;14.440;2023-04-24T10:34:05;92860.00;;;18.60
41593;BMP180;28026;48.562;14.440;2023-04-24T10:36:41;92860.00;;;18.60
41593;BMP180;28026;48.562;14.440;2023-04-24T10:39:16;92861.00;;;18.60
41593;BMP180;28026;48.562;14.440;2023-04-24T10:41:49;92859.00;;;18.50
41593;BMP180;28026;48.562;14.440;2023-04-24T10:44:22;92860.00;;;18.50
41593;BMP180;28026;48.562;14.440;2023-04-24T10:46:54;92868.00;;;18.50
41593;BMP180;28026;48.562;14.440;2023-04-24T10:49:29;92855.00;;;18.60
41593;BMP180;28026;48.562;14.440;2023-04-24T10:52:02;92856.00;;;18.70
41593;BMP180;28026;48.562;14.440;2023-04-24T11:00:11;92851.00;;;19.10
41593;BMP180;28026;48.562;14.440;2023-04-24T11:02:47;92854.00;;;19.30
41593;BMP180;28026;48.562;14.440;2023-04-24T11:05:49;92849.00;;;19.60
41593;BMP180;28026;48.562;14.440;2023-04-24T11:08:44;92839.00;;;20.00
41593;BMP180;28026;48.562;14.440;2023-04-24T11:11:17;92838.00;;;20.20
41593;BMP180;28026;48.562;14.440;2023-04-24T11:16:30;92833.00;;;20.60
41593;BMP180;28026;48.562;14.440;2023-04-24T11:21:42;92833.00;;;20.50
41593;BMP180;28026;48.562;14.440;2023-04-24T11:27:20;92845.00;;;20.20
41593;BMP180;28026;48.562;14.440;2023-04-24T11:35:13;92839.00;;;19.90
41593;BMP180;28026;48.562;14.440;2023-04-24T11:37:48;92841.00;;;19.80
41593;BMP180;28026;48.562;14.440;2023-04-24T11:40:22;92837.00;;;19.70
41593;BMP180;28026;48.562;14.440;2023-04-24T11:42:54;92838.00;;;19.50
41593;BMP180;28026;48.562;14.440;2023-04-24T11:45:29;92835.00;;;19.40
41593;BMP180;28026;48.562;14.440;2023-04-24T11:48:02;92840.00;;;19.50
41593;BMP180;28026;48.562;14.440;2023-04-24T11:50:33;92836.00;;;19.50
41593;BMP180;28026;48.562;14.440;2023-04-24T11:53:04;92840.00;;;19.60
41593;BMP180;28026;48.562;14.440;2023-04-24T11:55:35;92834.00;;;19.60
41593;BMP180;28026;48.562;14.440;2023-04-24T11:58:06;92836.00;;;19.70
41593;BMP180;28026;48.562;14.440;2023-04-24T12:00:37;92838.00;;;19.70
41593;BMP180;28026;48.562;14.440;2023-04-24T12:03:10;92837.00;;;19.70
41593;BMP180;28026;48.562;14.440;2023-04-24T12:05:41;92847.00;;;19.70
41593;BMP180;28026;48.562;14.440;2023-04-24T12:08:27;92845.00;;;19.70
41593;BMP180;28026;48.562;14.440;2023-04-24T12:11:01;92854.00;;;19.50
41593;BMP180;28026;48.562;14.440;2023-04-24T12:13:37;92856.00;;;19.10
41593;BMP180;28026;48.562;14.440;2023-04-24T12:16:08;92855.00;;;18.90
41593;BMP180;28026;48.562;14.440;2023-04-24T12:18:43;92857.00;;;18.70
41593;BMP180;28026;48.562;14.440;2023-04-24T12:21:22;92855.00;;;18.70
41593;BMP180;28026;48.562;14.440;2023-04-24T12:23:54;92847.00;;;18.70
41593;BMP180;28026;48.562;14.440;2023-04-24T12:26:27;92852.00;;;18.70
41593;BMP180;28026;48.562;14.440;2023-04-24T12:29:01;92853.00;;;18.70
41593;BMP180;28026;48.562;14.440;2023-04-24T12:31:33;92857.00;;;18.70
41593;BMP180;28026;48.562;14.440;2023-04-24T12:34:25;92858.00;;;18.70
41593;BMP180;28026;48.562;14.440;2023-04-24T12:36:56;92861.00;;;18.70
41593;BMP180;28026;48.562;14.440;2023-04-24T12:39:27;92871.00;;;18.60
41593;BMP180;28026;48.562;14.440;2023-04-24T12:41:58;92861.00;;;18.60
41593;BMP180;28026;48.562;14.440;2023-04-24T12:47:02;92862.00;;;18.60
41593;BMP180;28026;48.562;14.440;2023-04-24T12:49:33;92862.00;;;18.50
41593;BMP180;28026;48.562;14.440;2023-04-24T12:52:03;92867.00;;;18.50
41593;BMP180;28026;48.562;14.440;2023-04-24T12:54:35;92869.00;;;18.60
41593;BMP180;28026;48.562;14.440;2023-04-24T12:57:05;92867.00;;;18.70
41593;BMP180;28026;48.562;14.440;2023-04-24T12:59:36;92861.00;;;18.60
41593;BMP180;28026;48.562;14.440;2023-04-24T13:02:07;92866.00;;;18.60
41593;BMP180;28026;48.562;14.440;2023-04-24T13:04:39;92864.00;;;18.60
41593;BMP180;28026;48.562;14.440;2023-04-24T13:07:10;92866.00;;;18.50
41593;BMP180;28026;48.562;14.440;2023-04-24T13:09:42;92862.00;;;18.50
41593;BMP180;28026;48.562;14.440;2023-04-24T13:12:14;92866.00;;;18.50
41593;BMP180;28026;48.562;14.440;2023-04-24T13:14:45;92855.00;;;18.30
41593;BMP180;28026;48.562;14.440;2023-04-24T13:17:17;92864.00;;;18.30
41593;BMP180;28026;48.562;14.440;2023-04-24T13:19:50;92874.00;;;18.20
41593;BMP180;28026;48.562;14.440;2023-04-24T13:22:21;92862.00;;;18.20
41593;BMP180;28026;48.562;14.440;2023-04-24T13:24:52;92862.00;;;18.20
41593;BMP180;28026;48.562;14.440;2023-04-24T13:27:23;92860.00;;;18.20
41593;BMP180;28026;48.562;14.440;2023-04-24T13:29:54;92846.00;;;18.30
41593;BMP180;28026;48.562;14.440;2023-04-24T13:32:25;92844.00;;;18.40
41593;BMP180;28026;48.562;14.440;2023-04-24T13:34:56;92847.00;;;18.50
41593;BMP180;28026;48.562;14.440;2023-04-24T13:37:27;92842.00;;;18.60
41593;BMP180;28026;48.562;14.440;2023-04-24T13:39:58;92856.00;;;18.90
41593;BMP180;28026;48.562;14.440;2023-04-24T13:42:28;92855.00;;;19.00
41593;BMP180;28026;48.562;14.440;2023-04-24T13:44:59;92853.00;;;19.20
41593;BMP180;28026;48.562;14.440;2023-04-24T13:47:30;92853.00;;;19.20
41593;BMP180;28026;48.562;14.440;2023-04-24T13:50:01;92854.00;;;19.30
41593;BMP180;28026;48.562;14.440;2023-04-24T13:52:32;92867.00;;;19.30
41593;BMP180;28026;48.562;14.440;2023-04-24T13:55:03;92852.00;;;19.30
41593;BMP180;28026;48.562;14.440;2023-04-24T13:57:34;92845.00;;;19.20
41593;BMP180;28026;48.562;14.440;2023-04-24T14:00:06;92861.00;;;19.10
41593;BMP180;28026;48.562;14.440;2023-04-24T14:02:40;92866.00;;;19.10
41593;BMP180;28026;48.562;14.440;2023-04-24T14:05:12;92864.00;;;19.10
41593;BMP180;28026;48.562;14.440;2023-04-24T14:07:45;92868.00;;;18.90
41593;BMP180;28026;48.562;14.440;2023-04-24T14:10:16;92865.00;;;18.80
41593;BMP180;28026;48.562;14.440;2023-04-24T14:12:47;92875.00;;;18.80
41593;BMP180;28026;48.562;14.440;2023-04-24T14:15:18;92867.00;;;18.70
41593;BMP180;28026;48.562;14.440;2023-04-24T14:17:50;92869.00;;;18.60
41593;BMP180;28026;48.562;14.440;2023-04-24T14:20:20;92863.00;;;18.60
41593;BMP180;28026;48.562;14.440;2023-04-24T14:22:52;92852.00;;;18.60
41593;BMP180;28026;48.562;14.440;2023-04-24T14:25:23;92856.00;;;18.70
41593;BMP180;28026;48.562;14.440;2023-04-24T14:27:54;92855.00;;;18.70
41593;BMP180;28026;48.562;14.440;2023-04-24T14:30:25;92854.00;;;18.90
41593;BMP180;28026;48.562;14.440;2023-04-24T14:32:56;92856.00;;;18.90
41593;BMP180;28026;48.562;14.440;2023-04-24T14:35:26;92856.00;;;18.90
41593;BMP180;28026;48.562;14.440;2023-04-24T14:37:58;92854.00;;;19.00
41593;BMP180;28026;48.562;14.440;2023-04-24T14:40:29;92857.00;;;19.00
41593;BMP180;28026;48.562;14.440;2023-04-24T14:43:01;92851.00;;;19.00
41593;BMP180;28026;48.562;14.440;2023-04-24T14:45:32;92855.00;;;19.00